createdAt,value
2018-07-09T00:00:22.388Z,64.28
2018-07-09T00:02:49.686Z,64.11
2018-07-09T00:05:16.982Z,63.80
2018-07-09T00:07:44.281Z,64.29
2018-07-09T00:10:12.674Z,63.90
2018-07-09T00:12:39.930Z,63.66
2018-07-09T00:15:09.958Z,63.37
2018-07-09T00:20:28.078Z,63.33
2018-07-09T00:22:55.359Z,63.32
2018-07-09T00:25:22.639Z,63.00
2018-07-09T00:27:49.943Z,63.27
2018-07-09T00:30:17.246Z,64.45
2018-07-09T00:32:44.554Z,64.74
2018-07-09T00:35:11.803Z,64.35
2018-07-09T00:37:39.040Z,64.33
2018-07-09T00:40:06.309Z,64.02
2018-07-09T00:42:33.806Z,64.78
2018-07-09T00:45:01.828Z,65.18
2018-07-09T00:47:29.862Z,65.73
2018-07-09T00:49:57.126Z,66.38
2018-07-09T00:52:24.379Z,66.58
2018-07-09T00:54:51.660Z,66.06
2018-07-09T00:57:18.930Z,65.98
2018-07-09T00:59:46.245Z,65.92
2018-07-09T01:02:13.497Z,65.53
2018-07-09T01:04:40.757Z,65.64
2018-07-09T01:07:08.039Z,65.73
2018-07-09T01:09:35.317Z,65.60
2018-07-09T01:12:10.430Z,66.25
2018-07-09T01:14:38.376Z,66.33
2018-07-09T01:17:05.697Z,66.26
2018-07-09T01:19:33.180Z,66.59
2018-07-09T01:22:00.740Z,67.46
2018-07-09T01:24:28.032Z,67.88
2018-07-09T01:26:55.340Z,67.89
2018-07-09T01:29:22.640Z,68.28
2018-07-09T01:31:49.945Z,67.95
2018-07-09T01:34:24.028Z,68.33
2018-07-09T01:36:51.291Z,68.63
2018-07-09T01:39:18.590Z,68.27
2018-07-09T01:41:45.895Z,68.53
2018-07-09T01:44:13.166Z,68.42
2018-07-09T01:46:40.419Z,68.14
2018-07-09T01:49:07.800Z,67.77
2018-07-09T01:51:35.378Z,68.11
2018-07-09T01:54:02.660Z,68.08
2018-07-09T01:56:29.995Z,67.46
2018-07-09T01:58:57.285Z,67.22
2018-07-09T02:01:24.572Z,67.29
2018-07-09T02:03:51.805Z,67.92
2018-07-09T02:06:19.069Z,67.63
2018-07-09T02:08:46.335Z,67.61
2018-07-09T02:11:13.658Z,68.18
2018-07-09T02:13:41.031Z,68.21
2018-07-09T02:16:08.281Z,68.53
2018-07-09T02:18:35.558Z,68.46
2018-07-09T02:21:02.937Z,68.43
2018-07-09T02:23:30.181Z,68.12
2018-07-09T02:25:57.447Z,68.66
2018-07-09T02:28:24.720Z,68.64
2018-07-09T02:30:51.999Z,68.94
2018-07-09T02:33:19.428Z,68.76
2018-07-09T02:35:46.690Z,69.12
2018-07-09T02:38:14.009Z,68.85
2018-07-09T02:40:41.305Z,68.56
2018-07-09T02:43:08.567Z,69.68
2018-07-09T02:45:36.160Z,69.87
2018-07-09T02:48:03.470Z,69.71
2018-07-09T02:50:30.790Z,69.23
2018-07-09T02:52:58.162Z,69.27
2018-07-09T02:55:25.539Z,69.31
2018-07-09T02:57:52.869Z,69.71
2018-07-09T03:00:20.214Z,69.43
2018-07-09T03:02:47.756Z,69.25
2018-07-09T03:05:15.130Z,69.60
2018-07-09T03:07:42.461Z,69.60
2018-07-09T03:10:09.882Z,69.60
2018-07-09T03:12:37.215Z,69.78
2018-07-09T03:15:04.652Z,69.09
2018-07-09T03:17:32.177Z,69.03
2018-07-09T03:20:00.899Z,69.07
2018-07-09T03:22:29.610Z,69.56
2018-07-09T03:24:57.979Z,68.97
2018-07-09T03:27:25.462Z,69.35
2018-07-09T03:29:53.428Z,69.03
2018-07-09T03:32:20.778Z,68.87
2018-07-09T03:34:48.106Z,68.45
2018-07-09T03:37:15.588Z,68.40
2018-07-09T03:39:42.949Z,67.99
2018-07-09T03:42:10.314Z,68.00
2018-07-09T03:44:37.957Z,67.34
2018-07-09T03:47:06.611Z,67.13
2018-07-09T03:49:33.967Z,66.70
2018-07-09T03:52:01.429Z,66.81
2018-07-09T03:54:28.778Z,66.32
2018-07-09T03:56:56.150Z,66.45
2018-07-09T03:59:23.676Z,66.39
2018-07-09T04:01:51.095Z,66.80
2018-07-09T04:04:18.965Z,66.36
2018-07-09T04:06:46.359Z,66.29
2018-07-09T04:09:13.790Z,66.13
2018-07-09T04:11:41.152Z,65.89
2018-07-09T04:14:09.127Z,65.29
2018-07-09T04:16:36.435Z,64.96
2018-07-09T04:19:05.298Z,64.39
2018-07-09T04:21:32.872Z,64.27
2018-07-09T04:24:00.143Z,63.97
2018-07-09T04:26:27.578Z,63.06
2018-07-09T04:28:54.897Z,62.82
2018-07-09T04:31:22.440Z,62.82
2018-07-09T04:33:50.774Z,62.73
2018-07-09T04:36:18.091Z,62.70
2018-07-09T04:38:46.037Z,61.90
2018-07-09T04:41:13.265Z,61.89
2018-07-09T04:43:40.610Z,61.08
2018-07-09T04:46:07.983Z,60.57
2018-07-09T04:48:35.386Z,58.75
2018-07-09T04:51:02.879Z,59.16
2018-07-09T04:53:30.279Z,59.09
2018-07-09T04:55:58.272Z,59.21
2018-07-09T04:58:25.607Z,59.27
2018-07-09T05:00:53.013Z,59.13
2018-07-09T05:03:20.354Z,59.15
2018-07-09T05:05:47.715Z,58.35
2018-07-09T05:08:15.064Z,57.96
2018-07-09T05:10:42.424Z,57.54
2018-07-09T05:13:09.936Z,57.84
2018-07-09T05:15:37.297Z,57.67
2018-07-09T05:18:06.327Z,57.71
2018-07-09T05:20:33.680Z,57.92
2018-07-09T05:23:01.039Z,57.88
2018-07-09T05:25:28.446Z,57.59
2018-07-09T05:27:55.828Z,56.98
2018-07-09T05:30:23.190Z,56.51
2018-07-09T05:32:50.548Z,54.23
2018-07-09T05:35:17.938Z,53.17
2018-07-09T05:37:46.235Z,53.73
2018-07-09T05:40:13.689Z,53.32
2018-07-09T05:42:41.229Z,52.96
2018-07-09T05:45:08.678Z,51.16
2018-07-09T05:47:36.387Z,50.84
2018-07-09T05:50:06.705Z,48.84
2018-07-09T05:52:34.063Z,48.14
2018-07-09T05:55:01.389Z,47.43
2018-07-09T05:57:28.796Z,47.24
2018-07-09T05:59:56.134Z,46.32
2018-07-09T06:02:23.520Z,46.62
2018-07-09T06:04:50.908Z,45.59
2018-07-09T06:07:18.487Z,45.06
2018-07-09T06:09:45.950Z,44.52
2018-07-09T06:12:14.271Z,44.70
2018-07-09T06:14:41.685Z,44.03
2018-07-09T06:17:09.031Z,43.01
2018-07-09T06:19:36.452Z,42.52
2018-07-09T06:22:03.889Z,42.10
2018-07-09T06:24:31.245Z,40.17
2018-07-09T06:26:58.577Z,39.27
2018-07-09T06:29:26.006Z,38.59
2018-07-09T06:31:53.439Z,39.00
2018-07-09T06:34:21.607Z,38.92
2018-07-09T06:36:49.019Z,38.40
2018-07-09T06:39:16.953Z,38.81
2018-07-09T06:41:44.386Z,37.77
2018-07-09T06:44:11.777Z,36.73
2018-07-09T06:46:40.213Z,36.06
2018-07-09T06:49:08.078Z,36.00
2018-07-09T06:51:35.475Z,36.05
2018-07-09T06:54:02.898Z,35.93
2018-07-09T06:56:30.328Z,35.83
2018-07-09T06:58:58.353Z,35.28
2018-07-09T07:01:26.431Z,34.56
2018-07-09T07:03:53.837Z,34.72
2018-07-09T07:06:21.192Z,35.04
2018-07-09T07:08:48.645Z,34.18
2018-07-09T07:11:16.041Z,33.25
2018-07-09T07:13:43.399Z,33.08
2018-07-09T07:16:10.850Z,33.68
2018-07-09T07:18:38.217Z,33.72
2018-07-09T07:21:05.831Z,33.57
2018-07-09T07:23:33.135Z,33.79
2018-07-09T07:26:00.422Z,32.00
2018-07-09T07:28:27.722Z,30.78
2018-07-09T07:30:55.110Z,30.13
2018-07-09T07:33:22.873Z,29.95
2018-07-09T07:35:50.239Z,29.70
2018-07-09T07:38:17.557Z,27.87
2018-07-09T07:40:45.627Z,26.35
2018-07-09T07:43:13.409Z,26.02
2018-07-09T07:45:40.770Z,25.07
2018-07-09T07:48:08.075Z,24.51
2018-07-09T07:50:36.260Z,24.05
2018-07-09T07:53:03.611Z,23.08
2018-07-09T07:55:30.999Z,22.70
2018-07-09T07:57:58.298Z,24.31
2018-07-09T08:00:25.642Z,23.52
2018-07-09T08:02:53.023Z,26.83
2018-07-09T08:05:20.358Z,27.74
2018-07-09T08:07:47.674Z,28.57
2018-07-09T08:10:15.068Z,28.66
2018-07-09T08:15:09.851Z,27.39
2018-07-09T08:17:37.275Z,28.11
2018-07-09T08:20:05.529Z,27.27
2018-07-09T08:22:32.955Z,28.77
2018-07-09T08:25:00.441Z,28.94
2018-07-09T08:27:27.949Z,30.58
2018-07-09T08:29:55.354Z,29.47
2018-07-09T08:32:22.849Z,27.36
2018-07-09T08:34:50.315Z,27.62
2018-07-09T08:37:17.705Z,28.71
2018-07-09T08:39:45.240Z,30.28
2018-07-09T08:42:12.619Z,29.89
2018-07-09T08:44:40.466Z,29.93
2018-07-09T08:47:07.863Z,28.51
2018-07-09T08:49:35.335Z,26.71
2018-07-09T08:52:02.848Z,24.83
2018-07-09T08:54:30.150Z,26.24
2018-07-09T08:57:10.581Z,26.96
2018-07-09T08:59:37.954Z,24.83
2018-07-09T09:02:05.924Z,24.77
2018-07-09T09:04:33.276Z,23.49
2018-07-09T09:07:00.708Z,23.47
2018-07-09T09:09:28.114Z,23.36
2018-07-09T09:11:55.492Z,23.95
2018-07-09T09:14:23.091Z,24.39
2018-07-09T09:16:50.485Z,22.94
2018-07-09T09:19:17.814Z,23.13
2018-07-09T09:21:45.963Z,22.51
2018-07-09T09:24:13.329Z,21.98
2018-07-09T09:26:40.921Z,20.82
2018-07-09T09:29:08.266Z,21.24
2018-07-09T09:31:35.739Z,20.95
2018-07-09T09:34:03.122Z,20.51
2018-07-09T09:36:30.490Z,18.98
2018-07-09T09:38:57.939Z,19.08
2018-07-09T09:41:25.747Z,18.40
2018-07-09T09:43:53.178Z,19.59
2018-07-09T09:46:20.571Z,19.18
2018-07-09T09:48:48.645Z,19.31
2018-07-09T09:51:16.010Z,20.58
2018-07-09T09:53:43.402Z,20.48
2018-07-09T09:56:10.766Z,20.13
2018-07-09T09:58:38.279Z,18.56
2018-07-09T10:01:06.043Z,19.66
2018-07-09T10:03:33.482Z,18.92
2018-07-09T10:06:01.860Z,19.50
2018-07-09T10:08:29.295Z,19.19
2018-07-09T10:10:56.705Z,17.57
2018-07-09T10:13:24.069Z,17.66
2018-07-09T10:15:51.490Z,16.29
2018-07-09T10:18:18.996Z,17.42
2018-07-09T10:20:46.334Z,16.21
2018-07-09T10:23:13.869Z,15.74
2018-07-09T10:25:41.095Z,16.74
2018-07-09T10:28:08.458Z,15.76
2018-07-09T10:30:35.768Z,15.47
2018-07-09T10:33:04.142Z,15.73
2018-07-09T10:35:32.180Z,14.87
2018-07-09T10:37:59.552Z,15.26
2018-07-09T10:40:26.884Z,17.10
2018-07-09T10:42:54.243Z,15.88
2018-07-09T10:45:22.341Z,16.36
2018-07-09T10:47:49.665Z,16.84
2018-07-09T10:50:17.009Z,14.00
2018-07-09T10:52:44.348Z,14.42
2018-07-09T10:55:11.717Z,15.05
2018-07-09T10:57:39.103Z,14.80
2018-07-09T11:00:06.558Z,15.46
2018-07-09T11:02:33.975Z,15.34
2018-07-09T11:05:01.324Z,15.87
2018-07-09T11:07:28.672Z,15.72
2018-07-09T11:09:56.110Z,15.38
2018-07-09T11:12:23.651Z,15.08
2018-07-09T11:14:51.046Z,15.88
2018-07-09T11:17:18.316Z,16.72
2018-07-09T11:19:45.649Z,16.49
2018-07-09T11:22:13.029Z,15.06
2018-07-09T11:24:40.401Z,14.46
2018-07-09T11:27:07.702Z,15.05
2018-07-09T11:29:35.147Z,15.12
2018-07-09T11:32:02.555Z,14.59
2018-07-09T11:34:29.933Z,11.93
2018-07-09T11:36:57.251Z,11.77
2018-07-09T11:39:24.713Z,12.40
2018-07-09T11:41:52.086Z,13.30
2018-07-09T11:44:19.438Z,13.19
2018-07-09T11:46:46.801Z,12.88
2018-07-09T11:49:14.142Z,13.31
2018-07-09T11:51:42.395Z,13.39
2018-07-09T11:54:09.730Z,14.14
2018-07-09T11:56:37.045Z,13.72
2018-07-09T11:59:04.954Z,13.84
2018-07-09T12:01:32.285Z,14.90
2018-07-09T12:03:59.646Z,14.35
2018-07-09T12:06:27.017Z,14.34
2018-07-09T12:08:54.382Z,15.19
2018-07-09T12:11:22.463Z,15.22
2018-07-09T12:13:49.844Z,14.67
2018-07-09T12:16:17.915Z,13.92
2018-07-09T12:18:45.309Z,13.85
2018-07-09T12:21:13.699Z,13.70
2018-07-09T12:23:47.751Z,13.22
2018-07-09T12:26:15.111Z,13.30
2018-07-09T12:28:42.655Z,12.97
2018-07-09T12:31:09.974Z,13.66
2018-07-09T12:33:37.321Z,14.22
2018-07-09T12:36:06.008Z,13.75
2018-07-09T12:38:33.447Z,15.21
2018-07-09T12:41:00.883Z,13.93
2018-07-09T12:43:28.325Z,14.20
2018-07-09T12:45:56.358Z,14.73
2018-07-09T12:48:23.727Z,14.48
2018-07-09T12:50:51.110Z,15.26
2018-07-09T12:53:18.451Z,14.77
2018-07-09T12:55:45.902Z,14.44
2018-07-09T12:58:13.345Z,15.13
2018-07-09T13:00:40.817Z,15.50
2018-07-09T13:03:08.384Z,14.81
2018-07-09T13:05:35.882Z,15.90
2018-07-09T13:08:03.254Z,15.67
2018-07-09T13:10:30.858Z,15.95
2018-07-09T13:12:58.255Z,15.65
2018-07-09T13:15:25.587Z,15.51
2018-07-09T13:17:53.044Z,14.88
2018-07-09T13:20:20.550Z,14.84
2018-07-09T13:22:48.896Z,15.62
2018-07-09T13:25:16.253Z,16.26
2018-07-09T13:27:43.644Z,16.17
2018-07-09T13:30:10.967Z,16.02
2018-07-09T13:32:38.903Z,16.29
2018-07-09T13:35:06.827Z,15.37
2018-07-09T13:37:34.144Z,16.38
2018-07-09T13:40:01.480Z,17.00
2018-07-09T13:42:28.859Z,16.67
2018-07-09T13:44:57.942Z,17.14
2018-07-09T13:47:25.594Z,16.88
2018-07-09T13:49:53.401Z,17.51
2018-07-09T13:52:21.019Z,18.15
2018-07-09T13:54:48.397Z,19.33
2018-07-09T13:57:15.759Z,19.03
2018-07-09T13:59:43.113Z,18.94
2018-07-09T14:02:10.540Z,19.17
2018-07-09T14:04:38.704Z,19.46
2018-07-09T14:07:08.279Z,19.44
2018-07-09T14:09:35.635Z,19.70
2018-07-09T14:12:03.011Z,20.97
2018-07-09T14:14:30.455Z,22.18
2018-07-09T14:16:57.842Z,23.07
2018-07-09T14:20:35.515Z,24.37
2018-07-09T14:23:03.445Z,24.24
2018-07-09T14:25:31.424Z,24.83
2018-07-09T14:27:58.746Z,25.40
2018-07-09T14:30:26.134Z,25.75
2018-07-09T14:32:53.479Z,25.92
2018-07-09T14:35:20.836Z,26.63
2018-07-09T14:37:48.298Z,27.08
2018-07-09T14:40:15.606Z,27.22
2018-07-09T14:42:43.090Z,28.16
2018-07-09T14:45:11.040Z,28.50
2018-07-09T14:47:39.097Z,28.65
2018-07-09T14:50:08.618Z,28.80
2018-07-09T14:52:36.031Z,29.22
2018-07-09T14:55:03.521Z,29.45
2018-07-09T14:57:30.875Z,32.07
2018-07-09T14:59:58.282Z,32.86
2018-07-09T15:02:25.672Z,32.51
2018-07-09T15:04:53.193Z,33.15
2018-07-09T15:07:20.538Z,33.23
2018-07-09T15:09:47.938Z,33.26
2018-07-09T15:12:15.299Z,33.04
2018-07-09T15:14:42.634Z,33.57
2018-07-09T15:17:10.357Z,34.23
2018-07-09T15:19:37.779Z,34.30
2018-07-09T15:22:06.374Z,34.39
2018-07-09T15:24:33.797Z,34.30
2018-07-09T15:27:02.000Z,35.30
2018-07-09T15:29:29.342Z,36.62
2018-07-09T15:32:08.708Z,36.96
2018-07-09T15:34:36.417Z,36.56
2018-07-09T15:37:04.380Z,35.28
2018-07-09T15:39:31.758Z,35.69
2018-07-09T15:41:59.206Z,35.54
2018-07-09T15:44:26.640Z,35.41
2018-07-09T15:46:54.097Z,34.92
2018-07-09T15:49:21.545Z,34.70
2018-07-09T15:51:49.646Z,35.33
2018-07-09T15:54:17.034Z,35.57
2018-07-09T15:56:44.436Z,35.51
2018-07-09T15:59:11.812Z,35.94
2018-07-09T16:01:39.163Z,36.54
2018-07-09T16:04:06.976Z,37.06
2018-07-09T16:06:34.357Z,37.81
2018-07-09T16:09:01.814Z,37.69
2018-07-09T16:11:29.207Z,38.14
2018-07-09T16:13:57.177Z,37.54
2018-07-09T16:16:25.803Z,37.69
2018-07-09T16:18:53.186Z,38.56
2018-07-09T16:21:20.799Z,38.84
2018-07-09T16:23:48.174Z,39.87
2018-07-09T16:26:15.533Z,39.87
2018-07-09T16:28:42.969Z,39.75
2018-07-09T16:31:10.284Z,40.42
2018-07-09T16:33:37.639Z,40.72
2018-07-09T16:36:05.128Z,40.58
2018-07-09T16:38:32.496Z,40.84
2018-07-09T16:41:00.254Z,40.03
2018-07-09T16:43:28.653Z,40.71
2018-07-09T16:45:57.146Z,40.39
2018-07-09T16:48:25.285Z,40.51
2018-07-09T16:50:53.309Z,39.48
2018-07-09T16:53:21.113Z,39.00
2018-07-09T16:55:49.302Z,38.55
2018-07-09T16:58:17.508Z,38.06
2018-07-09T17:00:45.578Z,37.35
2018-07-09T17:03:14.212Z,36.99
2018-07-09T17:05:42.609Z,36.69
2018-07-09T17:08:11.891Z,36.47
2018-07-09T17:10:39.976Z,36.10
2018-07-09T17:13:07.801Z,36.28
2018-07-09T17:15:36.126Z,35.94
2018-07-09T17:18:05.504Z,36.06
2018-07-09T17:20:33.489Z,36.34
2018-07-09T17:23:02.104Z,36.55
2018-07-09T17:25:30.372Z,38.03
2018-07-09T17:27:59.898Z,39.17
2018-07-09T17:30:28.861Z,38.69
2018-07-09T17:32:57.040Z,39.55
2018-07-09T17:35:25.279Z,39.90
2018-07-09T17:37:54.146Z,40.31
2018-07-09T17:40:22.330Z,40.22
2018-07-09T17:42:50.192Z,41.09
2018-07-09T17:45:17.677Z,40.70
2018-07-09T17:47:46.083Z,41.40
2018-07-09T17:50:14.121Z,42.27
2018-07-09T17:52:42.754Z,42.25
2018-07-09T17:55:10.856Z,42.71
2018-07-09T17:57:38.454Z,42.33
2018-07-09T18:00:07.071Z,42.86
2018-07-09T18:02:35.209Z,42.93
2018-07-09T18:05:04.559Z,43.41
2018-07-09T18:07:34.178Z,43.70
2018-07-09T18:10:02.496Z,43.74
2018-07-09T18:12:32.145Z,43.98
2018-07-09T18:15:00.708Z,43.96
2018-07-09T18:17:31.663Z,43.94
2018-07-09T18:20:00.414Z,44.09
2018-07-09T18:22:36.079Z,44.18
2018-07-09T18:25:13.792Z,44.12
2018-07-09T18:27:49.571Z,44.43
2018-07-09T18:30:23.814Z,44.42
2018-07-09T18:32:52.596Z,44.67
2018-07-09T18:35:21.824Z,44.57
2018-07-09T18:37:51.895Z,44.81
2018-07-09T18:40:22.233Z,44.94
2018-07-09T18:42:54.807Z,44.88
2018-07-09T18:45:24.054Z,45.11
2018-07-09T18:47:54.537Z,45.04
2018-07-09T18:50:22.139Z,45.31
2018-07-09T18:52:51.172Z,45.74
2018-07-09T18:55:19.342Z,46.34
2018-07-09T18:57:47.922Z,46.64
2018-07-09T19:00:15.508Z,46.71
2018-07-09T19:02:44.541Z,46.82
2018-07-09T19:05:13.898Z,46.85
2018-07-09T19:07:43.002Z,47.08
2018-07-09T19:10:12.152Z,47.12
2018-07-09T19:12:42.347Z,47.52
2018-07-09T19:15:10.111Z,47.47
2018-07-09T19:18:04.572Z,47.50
2018-07-09T19:20:43.490Z,47.45
2018-07-09T19:23:10.726Z,47.72
2018-07-09T19:25:37.791Z,47.77
2018-07-09T19:28:06.222Z,47.79
2018-07-09T19:30:32.965Z,48.21
2018-07-09T19:33:00.091Z,48.61
2018-07-09T19:35:27.900Z,48.59
2018-07-09T19:37:54.776Z,48.50
2018-07-09T19:40:21.204Z,48.88
2018-07-09T19:42:47.972Z,48.89
2018-07-09T19:45:21.406Z,49.26
2018-07-09T19:47:47.923Z,49.37
2018-07-09T19:50:14.645Z,49.64
2018-07-09T19:52:40.945Z,49.60
2018-07-09T19:55:11.717Z,49.76
2018-07-09T19:57:38.742Z,49.64
2018-07-09T20:00:05.145Z,49.72
2018-07-09T20:02:31.584Z,49.83
2018-07-09T20:04:59.078Z,49.96
2018-07-09T20:07:25.495Z,50.13
2018-07-09T20:09:57.395Z,50.42
2018-07-09T20:12:29.335Z,50.48
2018-07-09T20:15:01.652Z,50.52
2018-07-09T20:17:29.484Z,50.71
2018-07-09T20:19:55.937Z,50.71
2018-07-09T20:22:22.329Z,50.66
2018-07-09T20:24:48.630Z,50.60
2018-07-09T20:27:14.872Z,50.46
2018-07-09T20:29:41.118Z,50.57
2018-07-09T20:32:07.518Z,50.44
2018-07-09T20:34:33.751Z,50.83
2018-07-09T20:36:59.994Z,50.59
2018-07-09T20:39:26.223Z,50.80
2018-07-09T20:41:52.462Z,50.67
2018-07-09T20:44:18.685Z,50.80
2018-07-09T20:46:44.949Z,50.79
2018-07-09T20:49:11.169Z,50.88
2018-07-09T20:51:37.425Z,50.92
2018-07-09T20:54:03.705Z,51.04
2018-07-09T20:56:29.965Z,51.28
2018-07-09T20:58:56.206Z,51.62
2018-07-09T21:01:22.467Z,51.67
2018-07-09T21:03:53.259Z,51.78
2018-07-09T21:06:19.514Z,52.08
2018-07-09T21:08:46.151Z,51.94
2018-07-09T21:11:12.419Z,52.33
2018-07-09T21:13:38.647Z,52.20
2018-07-09T21:16:05.093Z,52.21
2018-07-09T21:18:32.151Z,51.80
2018-07-09T21:20:58.406Z,52.11
2018-07-09T21:23:24.622Z,52.05
2018-07-09T21:25:50.867Z,52.12
2018-07-09T21:28:17.101Z,52.17
2018-07-09T21:30:43.335Z,52.21
2018-07-09T21:33:09.595Z,52.29
2018-07-09T21:35:35.863Z,52.16
2018-07-09T21:38:02.151Z,51.83
2018-07-09T21:40:28.400Z,51.92
2018-07-09T21:42:54.675Z,52.20
2018-07-09T21:45:20.910Z,52.96
2018-07-09T21:47:47.156Z,53.65
2018-07-09T21:50:13.390Z,54.28
2018-07-09T21:52:39.645Z,54.39
2018-07-09T21:55:06.467Z,54.61
2018-07-09T21:57:32.729Z,54.91
2018-07-09T21:59:58.978Z,55.17
2018-07-09T22:02:25.290Z,55.16
2018-07-09T22:04:51.538Z,55.44
2018-07-09T22:07:17.794Z,55.52
2018-07-09T22:09:44.062Z,55.41
2018-07-09T22:12:10.334Z,55.78
2018-07-09T22:14:36.573Z,55.50
2018-07-09T22:17:02.830Z,55.56
2018-07-09T22:19:29.071Z,55.81
2018-07-09T22:21:55.315Z,55.61
2018-07-09T22:24:21.592Z,55.87
2018-07-09T22:26:47.837Z,55.83
2018-07-09T22:29:14.082Z,56.11
2018-07-09T22:31:41.365Z,55.57
2018-07-09T22:34:08.615Z,55.53
2018-07-09T22:36:35.915Z,55.38
2018-07-09T22:39:04.153Z,55.69
2018-07-09T22:41:31.405Z,55.33
2018-07-09T22:44:10.178Z,55.45
2018-07-09T22:46:37.453Z,55.60
2018-07-09T22:49:05.450Z,55.34
2018-07-09T22:51:32.699Z,55.57
2018-07-09T22:53:59.950Z,55.06
2018-07-09T22:56:27.206Z,55.49
2018-07-09T22:58:54.460Z,55.54
2018-07-09T23:01:21.715Z,55.41
2018-07-09T23:03:48.973Z,55.60
2018-07-09T23:06:16.213Z,56.14
2018-07-09T23:08:43.509Z,56.13
2018-07-09T23:11:22.335Z,55.93
2018-07-09T23:17:08.761Z,55.93
2018-07-09T23:21:55.112Z,56.28
2018-07-09T23:24:21.377Z,59.21
2018-07-09T23:26:47.638Z,59.94
2018-07-09T23:29:13.903Z,60.90
2018-07-09T23:31:40.155Z,61.61
2018-07-09T23:34:06.441Z,62.87
2018-07-09T23:36:32.731Z,63.07
2018-07-09T23:38:59.023Z,63.63
2018-07-09T23:41:25.968Z,65.97
2018-07-09T23:43:52.225Z,66.97
2018-07-09T23:46:18.457Z,67.12
2018-07-09T23:48:44.680Z,68.17
2018-07-09T23:51:10.959Z,70.83
2018-07-09T23:53:37.195Z,70.03
2018-07-09T23:57:23.706Z,69.98
